sensor_id;sensor_type;location;lat;lon;timestamp;P1;P2;P0
60645;PMS5003;46462;32.608;-117.032;2024-02-28T00:02:07;3;2;
60645;PMS5003;46462;32.608;-117.032;2024-02-28T00:04:39;3;3;
60645;PMS5003;46462;32.608;-117.032;2024-02-28T00:07:09;3;2;
60645;PMS5003;46462;32.608;-117.032;2024-02-28T00:09:39;2;2;
60645;PMS5003;46462;32.608;-117.032;2024-02-28T00:12:10;2;2;
60645;PMS5003;46462;32.608;-117.032;2024-02-28T00:14:41;4;4;
60645;PMS5003;46462;32.608;-117.032;2024-02-28T00:17:12;3;3;
60645;PMS5003;46462;32.608;-117.032;2024-02-28T00:19:42;3;3;
60645;PMS5003;46462;32.608;-117.032;2024-02-28T00:22:13;4;3;
60645;PMS5003;46462;32.608;-117.032;2024-02-28T00:24:44;4;4;
60645;PMS5003;46462;32.608;-117.032;2024-02-28T00:27:14;3;3;
60645;PMS5003;46462;32.608;-117.032;2024-02-28T00:29:45;2;2;
60645;PMS5003;46462;32.608;-117.032;2024-02-28T00:32:16;2;2;
60645;PMS5003;46462;32.608;-117.032;2024-02-28T00:34:46;4;4;
60645;PMS5003;46462;32.608;-117.032;2024-02-28T00:37:17;3;3;
60645;PMS5003;46462;32.608;-117.032;2024-02-28T00:39:49;3;3;
60645;PMS5003;46462;32.608;-117.032;2024-02-28T00:42:18;2;2;
60645;PMS5003;46462;32.608;-117.032;2024-02-28T00:44:49;3;3;
60645;PMS5003;46462;32.608;-117.032;2024-02-28T00:47:20;3;3;
60645;PMS5003;46462;32.608;-117.032;2024-02-28T00:49:51;2;2;
60645;PMS5003;46462;32.608;-117.032;2024-02-28T00:52:21;3;3;
60645;PMS5003;46462;32.608;-117.032;2024-02-28T00:54:52;3;3;
60645;PMS5003;46462;32.608;-117.032;2024-02-28T00:57:23;4;4;
60645;PMS5003;46462;32.608;-117.032;2024-02-28T00:59:53;3;3;
60645;PMS5003;46462;32.608;-117.032;2024-02-28T01:02:24;2;2;
60645;PMS5003;46462;32.608;-117.032;2024-02-28T01:04:55;2;2;
60645;PMS5003;46462;32.608;-117.032;2024-02-28T01:07:25;2;2;
60645;PMS5003;46462;32.608;-117.032;2024-02-28T01:09:56;1;1;
60645;PMS5003;46462;32.608;-117.032;2024-02-28T01:12:27;4;4;
60645;PMS5003;46462;32.608;-117.032;2024-02-28T01:14:57;2;2;
60645;PMS5003;46462;32.608;-117.032;2024-02-28T01:17:28;4;4;
60645;PMS5003;46462;32.608;-117.032;2024-02-28T01:19:59;3;3;
60645;PMS5003;46462;32.608;-117.032;2024-02-28T01:22:29;2;2;
60645;PMS5003;46462;32.608;-117.032;2024-02-28T01:25:00;3;3;
60645;PMS5003;46462;32.608;-117.032;2024-02-28T01:27:31;3;2;
60645;PMS5003;46462;32.608;-117.032;2024-02-28T01:30:06;2;2;
60645;PMS5003;46462;32.608;-117.032;2024-02-28T01:32:36;2;2;
60645;PMS5003;46462;32.608;-117.032;2024-02-28T01:35:08;3;2;
60645;PMS5003;46462;32.608;-117.032;2024-02-28T01:37:36;1;1;
60645;PMS5003;46462;32.608;-117.032;2024-02-28T01:40:07;3;2;
60645;PMS5003;46462;32.608;-117.032;2024-02-28T01:42:38;4;4;
60645;PMS5003;46462;32.608;-117.032;2024-02-28T01:45:10;3;3;
60645;PMS5003;46462;32.608;-117.032;2024-02-28T01:47:39;2;2;
60645;PMS5003;46462;32.608;-117.032;2024-02-28T01:50:10;3;3;
60645;PMS5003;46462;32.608;-117.032;2024-02-28T01:52:40;2;2;
60645;PMS5003;46462;32.608;-117.032;2024-02-28T01:55:11;3;3;
60645;PMS5003;46462;32.608;-117.032;2024-02-28T01:57:42;3;3;
60645;PMS5003;46462;32.608;-117.032;2024-02-28T02:00:13;3;2;
60645;PMS5003;46462;32.608;-117.032;2024-02-28T02:02:43;2;2;
60645;PMS5003;46462;32.608;-117.032;2024-02-28T02:05:14;3;3;
60645;PMS5003;46462;32.608;-117.032;2024-02-28T02:07:45;2;2;
60645;PMS5003;46462;32.608;-117.032;2024-02-28T02:10:15;3;2;
60645;PMS5003;46462;32.608;-117.032;2024-02-28T02:12:46;2;2;
60645;PMS5003;46462;32.608;-117.032;2024-02-28T02:15:17;2;2;
60645;PMS5003;46462;32.608;-117.032;2024-02-28T02:17:47;2;2;
60645;PMS5003;46462;32.608;-117.032;2024-02-28T02:20:18;3;3;
60645;PMS5003;46462;32.608;-117.032;2024-02-28T02:22:49;1;1;
60645;PMS5003;46462;32.608;-117.032;2024-02-28T02:25:19;3;3;
60645;PMS5003;46462;32.608;-117.032;2024-02-28T02:27:50;2;2;
60645;PMS5003;46462;32.608;-117.032;2024-02-28T02:30:21;2;2;
60645;PMS5003;46462;32.608;-117.032;2024-02-28T02:32:51;1;1;
60645;PMS5003;46462;32.608;-117.032;2024-02-28T02:35:22;2;2;
60645;PMS5003;46462;32.608;-117.032;2024-02-28T02:37:53;2;2;
60645;PMS5003;46462;32.608;-117.032;2024-02-28T02:40:24;2;2;
60645;PMS5003;46462;32.608;-117.032;2024-02-28T02:42:54;2;2;
60645;PMS5003;46462;32.608;-117.032;2024-02-28T02:45:25;3;3;
60645;PMS5003;46462;32.608;-117.032;2024-02-28T02:47:56;2;2;
60645;PMS5003;46462;32.608;-117.032;2024-02-28T02:50:26;2;2;
60645;PMS5003;46462;32.608;-117.032;2024-02-28T02:52:57;2;2;
60645;PMS5003;46462;32.608;-117.032;2024-02-28T02:55:28;3;2;
60645;PMS5003;46462;32.608;-117.032;2024-02-28T02:57:58;3;3;
60645;PMS5003;46462;32.608;-117.032;2024-02-28T03:00:29;1;1;
60645;PMS5003;46462;32.608;-117.032;2024-02-28T03:03:00;3;3;
60645;PMS5003;46462;32.608;-117.032;2024-02-28T03:05:31;3;3;
60645;PMS5003;46462;32.608;-117.032;2024-02-28T03:08:01;2;2;
60645;PMS5003;46462;32.608;-117.032;2024-02-28T03:10:32;1;1;
60645;PMS5003;46462;32.608;-117.032;2024-02-28T03:13:03;2;2;
60645;PMS5003;46462;32.608;-117.032;2024-02-28T03:15:33;3;3;
60645;PMS5003;46462;32.608;-117.032;2024-02-28T03:18:04;3;3;
60645;PMS5003;46462;32.608;-117.032;2024-02-28T03:20:35;4;3;
60645;PMS5003;46462;32.608;-117.032;2024-02-28T03:23:05;2;2;
60645;PMS5003;46462;32.608;-117.032;2024-02-28T03:25:36;2;2;
60645;PMS5003;46462;32.608;-117.032;2024-02-28T03:28:07;2;2;
60645;PMS5003;46462;32.608;-117.032;2024-02-28T03:30:38;2;2;
60645;PMS5003;46462;32.608;-117.032;2024-02-28T03:33:08;2;2;
60645;PMS5003;46462;32.608;-117.032;2024-02-28T03:35:39;3;2;
60645;PMS5003;46462;32.608;-117.032;2024-02-28T03:38:10;2;1;
60645;PMS5003;46462;32.608;-117.032;2024-02-28T03:40:40;3;3;
60645;PMS5003;46462;32.608;-117.032;2024-02-28T03:43:11;1;1;
60645;PMS5003;46462;32.608;-117.032;2024-02-28T03:45:42;3;3;
60645;PMS5003;46462;32.608;-117.032;2024-02-28T03:48:13;2;2;
60645;PMS5003;46462;32.608;-117.032;2024-02-28T03:50:43;1;1;
60645;PMS5003;46462;32.608;-117.032;2024-02-28T03:53:14;3;3;
60645;PMS5003;46462;32.608;-117.032;2024-02-28T03:55:45;2;2;
60645;PMS5003;46462;32.608;-117.032;2024-02-28T03:58:15;1;1;
60645;PMS5003;46462;32.608;-117.032;2024-02-28T04:00:46;2;2;
60645;PMS5003;46462;32.608;-117.032;2024-02-28T04:03:17;2;2;
60645;PMS5003;46462;32.608;-117.032;2024-02-28T04:05:47;2;2;
60645;PMS5003;46462;32.608;-117.032;2024-02-28T04:08:18;3;2;
60645;PMS5003;46462;32.608;-117.032;2024-02-28T04:10:49;3;3;
60645;PMS5003;46462;32.608;-117.032;2024-02-28T04:13:19;1;1;
60645;PMS5003;46462;32.608;-117.032;2024-02-28T04:15:50;2;2;
60645;PMS5003;46462;32.608;-117.032;2024-02-28T04:18:21;2;2;
60645;PMS5003;46462;32.608;-117.032;2024-02-28T04:20:52;2;2;
60645;PMS5003;46462;32.608;-117.032;2024-02-28T04:23:22;2;2;
60645;PMS5003;46462;32.608;-117.032;2024-02-28T04:25:53;0;0;
60645;PMS5003;46462;32.608;-117.032;2024-02-28T04:28:24;1;1;
60645;PMS5003;46462;32.608;-117.032;2024-02-28T04:30:55;3;3;
60645;PMS5003;46462;32.608;-117.032;2024-02-28T04:33:25;2;2;
60645;PMS5003;46462;32.608;-117.032;2024-02-28T04:35:56;2;2;
60645;PMS5003;46462;32.608;-117.032;2024-02-28T04:38:27;3;3;
60645;PMS5003;46462;32.608;-117.032;2024-02-28T04:40:57;2;2;
60645;PMS5003;46462;32.608;-117.032;2024-02-28T04:43:28;2;2;
60645;PMS5003;46462;32.608;-117.032;2024-02-28T04:45:59;1;1;
60645;PMS5003;46462;32.608;-117.032;2024-02-28T04:48:29;2;2;
60645;PMS5003;46462;32.608;-117.032;2024-02-28T04:51:00;2;2;
60645;PMS5003;46462;32.608;-117.032;2024-02-28T04:53:31;3;2;
60645;PMS5003;46462;32.608;-117.032;2024-02-28T04:56:02;1;1;
60645;PMS5003;46462;32.608;-117.032;2024-02-28T04:58:32;2;2;
60645;PMS5003;46462;32.608;-117.032;2024-02-28T05:01:03;3;3;
60645;PMS5003;46462;32.608;-117.032;2024-02-28T05:03:34;2;2;
60645;PMS5003;46462;32.608;-117.032;2024-02-28T05:06:04;2;2;
60645;PMS5003;46462;32.608;-117.032;2024-02-28T05:08:37;2;2;
60645;PMS5003;46462;32.608;-117.032;2024-02-28T05:11:06;1;1;
60645;PMS5003;46462;32.608;-117.032;2024-02-28T05:13:36;2;2;
60645;PMS5003;46462;32.608;-117.032;2024-02-28T05:16:12;3;3;
60645;PMS5003;46462;32.608;-117.032;2024-02-28T05:18:38;2;2;
60645;PMS5003;46462;32.608;-117.032;2024-02-28T05:21:09;2;2;
60645;PMS5003;46462;32.608;-117.032;2024-02-28T05:23:39;1;1;
60645;PMS5003;46462;32.608;-117.032;2024-02-28T05:26:10;1;1;
60645;PMS5003;46462;32.608;-117.032;2024-02-28T05:28:41;2;2;
60645;PMS5003;46462;32.608;-117.032;2024-02-28T05:33:42;2;2;
60645;PMS5003;46462;32.608;-117.032;2024-02-28T05:36:13;1;1;
60645;PMS5003;46462;32.608;-117.032;2024-02-28T05:38:44;2;2;
60645;PMS5003;46462;32.608;-117.032;2024-02-28T05:41:16;2;2;
60645;PMS5003;46462;32.608;-117.032;2024-02-28T05:43:45;2;2;
60645;PMS5003;46462;32.608;-117.032;2024-02-28T05:46:16;1;1;
60645;PMS5003;46462;32.608;-117.032;2024-02-28T05:48:46;2;2;
60645;PMS5003;46462;32.608;-117.032;2024-02-28T05:51:17;2;2;
60645;PMS5003;46462;32.608;-117.032;2024-02-28T05:53:48;3;3;
60645;PMS5003;46462;32.608;-117.032;2024-02-28T05:56:19;2;2;
60645;PMS5003;46462;32.608;-117.032;2024-02-28T05:58:49;2;2;
60645;PMS5003;46462;32.608;-117.032;2024-02-28T06:01:20;2;2;
60645;PMS5003;46462;32.608;-117.032;2024-02-28T06:03:51;2;2;
60645;PMS5003;46462;32.608;-117.032;2024-02-28T06:06:21;3;3;
60645;PMS5003;46462;32.608;-117.032;2024-02-28T06:08:52;1;1;
60645;PMS5003;46462;32.608;-117.032;2024-02-28T06:11:23;3;2;
60645;PMS5003;46462;32.608;-117.032;2024-02-28T06:13:53;3;3;
60645;PMS5003;46462;32.608;-117.032;2024-02-28T06:16:24;1;1;
60645;PMS5003;46462;32.608;-117.032;2024-02-28T06:18:55;2;2;
60645;PMS5003;46462;32.608;-117.032;2024-02-28T06:21:26;2;2;
60645;PMS5003;46462;32.608;-117.032;2024-02-28T06:23:56;3;3;
60645;PMS5003;46462;32.608;-117.032;2024-02-28T06:26:27;2;2;
60645;PMS5003;46462;32.608;-117.032;2024-02-28T06:28:58;2;2;
60645;PMS5003;46462;32.608;-117.032;2024-02-28T06:31:28;2;2;
60645;PMS5003;46462;32.608;-117.032;2024-02-28T06:33:59;2;2;
60645;PMS5003;46462;32.608;-117.032;2024-02-28T06:36:30;2;2;
60645;PMS5003;46462;32.608;-117.032;2024-02-28T06:39:01;2;2;
60645;PMS5003;46462;32.608;-117.032;2024-02-28T06:41:31;2;2;
60645;PMS5003;46462;32.608;-117.032;2024-02-28T06:44:02;2;2;
60645;PMS5003;46462;32.608;-117.032;2024-02-28T06:46:33;3;3;
60645;PMS5003;46462;32.608;-117.032;2024-02-28T06:49:03;0;0;
60645;PMS5003;46462;32.608;-117.032;2024-02-28T06:51:34;1;1;
60645;PMS5003;46462;32.608;-117.032;2024-02-28T06:54:05;2;2;
60645;PMS5003;46462;32.608;-117.032;2024-02-28T06:56:36;2;2;
60645;PMS5003;46462;32.608;-117.032;2024-02-28T06:59:06;2;2;
60645;PMS5003;46462;32.608;-117.032;2024-02-28T07:01:37;2;2;
60645;PMS5003;46462;32.608;-117.032;2024-02-28T07:04:08;1;1;
60645;PMS5003;46462;32.608;-117.032;2024-02-28T07:06:38;3;3;
60645;PMS5003;46462;32.608;-117.032;2024-02-28T07:09:10;2;2;
60645;PMS5003;46462;32.608;-117.032;2024-02-28T07:11:40;1;1;
60645;PMS5003;46462;32.608;-117.032;2024-02-28T07:14:11;2;2;
60645;PMS5003;46462;32.608;-117.032;2024-02-28T07:16:41;1;1;
60645;PMS5003;46462;32.608;-117.032;2024-02-28T07:19:12;1;1;
60645;PMS5003;46462;32.608;-117.032;2024-02-28T07:21:43;3;2;
60645;PMS5003;46462;32.608;-117.032;2024-02-28T07:24:14;2;2;
60645;PMS5003;46462;32.608;-117.032;2024-02-28T07:26:45;2;2;
60645;PMS5003;46462;32.608;-117.032;2024-02-28T07:29:15;2;2;
60645;PMS5003;46462;32.608;-117.032;2024-02-28T07:31:46;0;0;
60645;PMS5003;46462;32.608;-117.032;2024-02-28T07:34:17;2;2;
60645;PMS5003;46462;32.608;-117.032;2024-02-28T07:36:47;1;1;
60645;PMS5003;46462;32.608;-117.032;2024-02-28T07:39:18;2;1;
60645;PMS5003;46462;32.608;-117.032;2024-02-28T07:41:49;1;1;
60645;PMS5003;46462;32.608;-117.032;2024-02-28T07:44:20;2;2;
60645;PMS5003;46462;32.608;-117.032;2024-02-28T07:46:50;1;1;
60645;PMS5003;46462;32.608;-117.032;2024-02-28T07:49:21;3;3;
60645;PMS5003;46462;32.608;-117.032;2024-02-28T07:51:52;2;2;
60645;PMS5003;46462;32.608;-117.032;2024-02-28T07:54:22;1;1;
60645;PMS5003;46462;32.608;-117.032;2024-02-28T07:56:53;1;1;
60645;PMS5003;46462;32.608;-117.032;2024-02-28T07:59:24;2;2;
60645;PMS5003;46462;32.608;-117.032;2024-02-28T08:01:55;1;1;
60645;PMS5003;46462;32.608;-117.032;2024-02-28T08:04:25;2;2;
60645;PMS5003;46462;32.608;-117.032;2024-02-28T08:06:56;1;1;
60645;PMS5003;46462;32.608;-117.032;2024-02-28T08:09:27;2;2;
60645;PMS5003;46462;32.608;-117.032;2024-02-28T08:11:57;2;2;
60645;PMS5003;46462;32.608;-117.032;2024-02-28T08:14:28;2;1;
60645;PMS5003;46462;32.608;-117.032;2024-02-28T08:16:59;2;2;
60645;PMS5003;46462;32.608;-117.032;2024-02-28T08:19:30;2;2;
60645;PMS5003;46462;32.608;-117.032;2024-02-28T08:22:00;2;2;
60645;PMS5003;46462;32.608;-117.032;2024-02-28T08:24:31;0;0;
60645;PMS5003;46462;32.608;-117.032;2024-02-28T08:27:02;1;1;
60645;PMS5003;46462;32.608;-117.032;2024-02-28T08:29:33;3;3;
60645;PMS5003;46462;32.608;-117.032;2024-02-28T08:32:04;1;1;
60645;PMS5003;46462;32.608;-117.032;2024-02-28T08:34:34;3;3;
60645;PMS5003;46462;32.608;-117.032;2024-02-28T08:37:05;1;1;
60645;PMS5003;46462;32.608;-117.032;2024-02-28T08:39:36;3;3;
60645;PMS5003;46462;32.608;-117.032;2024-02-28T08:42:06;3;3;
60645;PMS5003;46462;32.608;-117.032;2024-02-28T08:44:37;3;3;
60645;PMS5003;46462;32.608;-117.032;2024-02-28T08:47:08;3;3;
60645;PMS5003;46462;32.608;-117.032;2024-02-28T08:49:39;1;1;
60645;PMS5003;46462;32.608;-117.032;2024-02-28T08:52:09;1;1;
60645;PMS5003;46462;32.608;-117.032;2024-02-28T08:54:40;2;2;
60645;PMS5003;46462;32.608;-117.032;2024-02-28T08:57:11;2;2;
60645;PMS5003;46462;32.608;-117.032;2024-02-28T08:59:42;2;2;
60645;PMS5003;46462;32.608;-117.032;2024-02-28T09:02:12;2;2;
60645;PMS5003;46462;32.608;-117.032;2024-02-28T09:04:43;2;1;
60645;PMS5003;46462;32.608;-117.032;2024-02-28T09:07:14;2;2;
60645;PMS5003;46462;32.608;-117.032;2024-02-28T09:09:45;1;1;
60645;PMS5003;46462;32.608;-117.032;2024-02-28T09:12:15;4;4;
60645;PMS5003;46462;32.608;-117.032;2024-02-28T09:14:46;1;1;
60645;PMS5003;46462;32.608;-117.032;2024-02-28T09:17:17;2;2;
60645;PMS5003;46462;32.608;-117.032;2024-02-28T09:19:47;3;2;
60645;PMS5003;46462;32.608;-117.032;2024-02-28T09:22:18;2;2;
60645;PMS5003;46462;32.608;-117.032;2024-02-28T09:24:49;2;2;
60645;PMS5003;46462;32.608;-117.032;2024-02-28T09:27:20;2;2;
60645;PMS5003;46462;32.608;-117.032;2024-02-28T09:29:50;2;2;
60645;PMS5003;46462;32.608;-117.032;2024-02-28T09:32:21;2;2;
60645;PMS5003;46462;32.608;-117.032;2024-02-28T09:34:52;2;2;
60645;PMS5003;46462;32.608;-117.032;2024-02-28T09:37:23;2;2;
60645;PMS5003;46462;32.608;-117.032;2024-02-28T09:39:53;2;2;
60645;PMS5003;46462;32.608;-117.032;2024-02-28T09:42:24;2;2;
60645;PMS5003;46462;32.608;-117.032;2024-02-28T09:44:55;2;2;
60645;PMS5003;46462;32.608;-117.032;2024-02-28T09:47:26;2;2;
60645;PMS5003;46462;32.608;-117.032;2024-02-28T09:49:57;2;2;
60645;PMS5003;46462;32.608;-117.032;2024-02-28T09:52:27;2;2;
60645;PMS5003;46462;32.608;-117.032;2024-02-28T09:54:58;2;2;
60645;PMS5003;46462;32.608;-117.032;2024-02-28T09:57:29;3;3;
60645;PMS5003;46462;32.608;-117.032;2024-02-28T09:59:59;1;1;
60645;PMS5003;46462;32.608;-117.032;2024-02-28T10:02:30;2;2;
60645;PMS5003;46462;32.608;-117.032;2024-02-28T10:05:01;2;1;
60645;PMS5003;46462;32.608;-117.032;2024-02-28T10:07:32;1;1;
60645;PMS5003;46462;32.608;-117.032;2024-02-28T10:10:06;2;2;
60645;PMS5003;46462;32.608;-117.032;2024-02-28T10:12:36;2;2;
60645;PMS5003;46462;32.608;-117.032;2024-02-28T10:15:07;1;1;
60645;PMS5003;46462;32.608;-117.032;2024-02-28T10:17:37;2;2;
60645;PMS5003;46462;32.608;-117.032;2024-02-28T10:20:09;2;2;
60645;PMS5003;46462;32.608;-117.032;2024-02-28T10:22:39;2;1;
60645;PMS5003;46462;32.608;-117.032;2024-02-28T10:25:09;2;2;
60645;PMS5003;46462;32.608;-117.032;2024-02-28T10:27:40;1;1;
60645;PMS5003;46462;32.608;-117.032;2024-02-28T10:30:11;2;2;
60645;PMS5003;46462;32.608;-117.032;2024-02-28T10:35:12;2;2;
60645;PMS5003;46462;32.608;-117.032;2024-02-28T10:37:43;0;0;
60645;PMS5003;46462;32.608;-117.032;2024-02-28T10:40:14;3;3;
60645;PMS5003;46462;32.608;-117.032;2024-02-28T10:42:45;2;2;
60645;PMS5003;46462;32.608;-117.032;2024-02-28T10:45:16;2;2;
60645;PMS5003;46462;32.608;-117.032;2024-02-28T10:47:46;2;2;
60645;PMS5003;46462;32.608;-117.032;2024-02-28T10:50:17;0;0;
60645;PMS5003;46462;32.608;-117.032;2024-02-28T10:52:48;3;3;
60645;PMS5003;46462;32.608;-117.032;2024-02-28T10:55:20;2;2;
60645;PMS5003;46462;32.608;-117.032;2024-02-28T10:57:51;1;1;
60645;PMS5003;46462;32.608;-117.032;2024-02-28T11:00:21;2;2;
60645;PMS5003;46462;32.608;-117.032;2024-02-28T11:02:51;2;2;
60645;PMS5003;46462;32.608;-117.032;2024-02-28T11:05:21;3;3;
60645;PMS5003;46462;32.608;-117.032;2024-02-28T11:07:54;2;2;
60645;PMS5003;46462;32.608;-117.032;2024-02-28T11:10:23;2;2;
60645;PMS5003;46462;32.608;-117.032;2024-02-28T11:12:54;3;2;
60645;PMS5003;46462;32.608;-117.032;2024-02-28T11:15:25;1;1;
60645;PMS5003;46462;32.608;-117.032;2024-02-28T11:17:55;2;2;
60645;PMS5003;46462;32.608;-117.032;2024-02-28T11:22:57;3;2;
60645;PMS5003;46462;32.608;-117.032;2024-02-28T11:25:28;2;2;
60645;PMS5003;46462;32.608;-117.032;2024-02-28T11:27:58;2;2;
60645;PMS5003;46462;32.608;-117.032;2024-02-28T11:30:29;3;3;
60645;PMS5003;46462;32.608;-117.032;2024-02-28T11:33:00;2;2;
60645;PMS5003;46462;32.608;-117.032;2024-02-28T11:35:31;3;3;
60645;PMS5003;46462;32.608;-117.032;2024-02-28T11:38:01;2;2;
60645;PMS5003;46462;32.608;-117.032;2024-02-28T11:40:32;2;2;
60645;PMS5003;46462;32.608;-117.032;2024-02-28T11:43:03;2;2;
60645;PMS5003;46462;32.608;-117.032;2024-02-28T11:48:05;4;4;
60645;PMS5003;46462;32.608;-117.032;2024-02-28T11:50:37;1;1;
60645;PMS5003;46462;32.608;-117.032;2024-02-28T11:53:06;3;3;
60645;PMS5003;46462;32.608;-117.032;2024-02-28T11:55:37;3;3;
60645;PMS5003;46462;32.608;-117.032;2024-02-28T11:58:08;0;0;
60645;PMS5003;46462;32.608;-117.032;2024-02-28T12:03:09;2;2;
60645;PMS5003;46462;32.608;-117.032;2024-02-28T12:05:42;3;2;
60645;PMS5003;46462;32.608;-117.032;2024-02-28T12:08:11;2;2;
60645;PMS5003;46462;32.608;-117.032;2024-02-28T12:10:41;2;2;
60645;PMS5003;46462;32.608;-117.032;2024-02-28T12:13:16;2;2;
60645;PMS5003;46462;32.608;-117.032;2024-02-28T12:15:43;2;2;
60645;PMS5003;46462;32.608;-117.032;2024-02-28T12:18:14;2;2;
60645;PMS5003;46462;32.608;-117.032;2024-02-28T12:20:45;3;3;
60645;PMS5003;46462;32.608;-117.032;2024-02-28T12:23:15;3;3;
60645;PMS5003;46462;32.608;-117.032;2024-02-28T12:25:46;1;1;
60645;PMS5003;46462;32.608;-117.032;2024-02-28T12:28:17;2;2;
60645;PMS5003;46462;32.608;-117.032;2024-02-28T12:30:48;2;2;
60645;PMS5003;46462;32.608;-117.032;2024-02-28T12:33:18;2;2;
60645;PMS5003;46462;32.608;-117.032;2024-02-28T12:35:49;2;2;
60645;PMS5003;46462;32.608;-117.032;2024-02-28T12:38:20;1;1;
60645;PMS5003;46462;32.608;-117.032;2024-02-28T12:40:51;1;1;
60645;PMS5003;46462;32.608;-117.032;2024-02-28T12:43:21;2;2;
60645;PMS5003;46462;32.608;-117.032;2024-02-28T12:45:52;2;2;
60645;PMS5003;46462;32.608;-117.032;2024-02-28T12:48:23;2;2;
60645;PMS5003;46462;32.608;-117.032;2024-02-28T12:50:54;2;2;
60645;PMS5003;46462;32.608;-117.032;2024-02-28T12:53:24;4;3;
60645;PMS5003;46462;32.608;-117.032;2024-02-28T12:55:55;3;3;
60645;PMS5003;46462;32.608;-117.032;2024-02-28T12:58:26;2;2;
60645;PMS5003;46462;32.608;-117.032;2024-02-28T13:00:57;1;1;
60645;PMS5003;46462;32.608;-117.032;2024-02-28T13:03:27;2;2;
60645;PMS5003;46462;32.608;-117.032;2024-02-28T13:05:58;2;2;
60645;PMS5003;46462;32.608;-117.032;2024-02-28T13:08:29;2;2;
60645;PMS5003;46462;32.608;-117.032;2024-02-28T13:11:00;3;3;
60645;PMS5003;46462;32.608;-117.032;2024-02-28T13:13:30;3;2;
60645;PMS5003;46462;32.608;-117.032;2024-02-28T13:16:01;2;2;
60645;PMS5003;46462;32.608;-117.032;2024-02-28T13:18:32;2;2;
60645;PMS5003;46462;32.608;-117.032;2024-02-28T13:21:03;3;3;
60645;PMS5003;46462;32.608;-117.032;2024-02-28T13:23:34;5;4;
60645;PMS5003;46462;32.608;-117.032;2024-02-28T13:26:04;2;2;
60645;PMS5003;46462;32.608;-117.032;2024-02-28T13:28:35;2;2;
60645;PMS5003;46462;32.608;-117.032;2024-02-28T13:31:06;2;2;
60645;PMS5003;46462;32.608;-117.032;2024-02-28T13:33:37;2;2;
60645;PMS5003;46462;32.608;-117.032;2024-02-28T13:36:07;2;2;
60645;PMS5003;46462;32.608;-117.032;2024-02-28T13:38:38;2;2;
60645;PMS5003;46462;32.608;-117.032;2024-02-28T13:41:09;3;3;
60645;PMS5003;46462;32.608;-117.032;2024-02-28T13:43:40;2;2;
60645;PMS5003;46462;32.608;-117.032;2024-02-28T13:46:10;3;3;
60645;PMS5003;46462;32.608;-117.032;2024-02-28T13:48:41;3;3;
60645;PMS5003;46462;32.608;-117.032;2024-02-28T13:51:12;3;2;
60645;PMS5003;46462;32.608;-117.032;2024-02-28T13:53:43;2;2;
60645;PMS5003;46462;32.608;-117.032;2024-02-28T13:56:14;2;2;
60645;PMS5003;46462;32.608;-117.032;2024-02-28T13:58:44;2;2;
60645;PMS5003;46462;32.608;-117.032;2024-02-28T14:01:15;1;1;
60645;PMS5003;46462;32.608;-117.032;2024-02-28T14:03:46;2;2;
60645;PMS5003;46462;32.608;-117.032;2024-02-28T14:06:17;3;3;
60645;PMS5003;46462;32.608;-117.032;2024-02-28T14:08:47;1;1;
60645;PMS5003;46462;32.608;-117.032;2024-02-28T14:11:18;2;2;
60645;PMS5003;46462;32.608;-117.032;2024-02-28T14:13:49;2;2;
60645;PMS5003;46462;32.608;-117.032;2024-02-28T14:16:20;1;1;
60645;PMS5003;46462;32.608;-117.032;2024-02-28T14:18:51;3;3;
60645;PMS5003;46462;32.608;-117.032;2024-02-28T14:21:21;3;2;
60645;PMS5003;46462;32.608;-117.032;2024-02-28T14:23:52;3;3;
60645;PMS5003;46462;32.608;-117.032;2024-02-28T14:26:23;4;4;
60645;PMS5003;46462;32.608;-117.032;2024-02-28T14:28:54;2;2;
60645;PMS5003;46462;32.608;-117.032;2024-02-28T14:31:24;2;2;
60645;PMS5003;46462;32.608;-117.032;2024-02-28T14:33:55;3;3;
60645;PMS5003;46462;32.608;-117.032;2024-02-28T14:36:26;3;3;
60645;PMS5003;46462;32.608;-117.032;2024-02-28T14:38:57;4;4;
60645;PMS5003;46462;32.608;-117.032;2024-02-28T14:41:27;3;3;
60645;PMS5003;46462;32.608;-117.032;2024-02-28T14:43:58;3;3;
60645;PMS5003;46462;32.608;-117.032;2024-02-28T14:46:29;3;3;
60645;PMS5003;46462;32.608;-117.032;2024-02-28T14:49:00;2;2;
60645;PMS5003;46462;32.608;-117.032;2024-02-28T14:51:31;4;3;
60645;PMS5003;46462;32.608;-117.032;2024-02-28T14:54:01;2;2;
60645;PMS5003;46462;32.608;-117.032;2024-02-28T14:56:32;2;2;
60645;PMS5003;46462;32.608;-117.032;2024-02-28T14:59:03;3;3;
60645;PMS5003;46462;32.608;-117.032;2024-02-28T15:01:34;2;2;
60645;PMS5003;46462;32.608;-117.032;2024-02-28T15:04:04;4;4;
60645;PMS5003;46462;32.608;-117.032;2024-02-28T15:06:35;4;4;
60645;PMS5003;46462;32.608;-117.032;2024-02-28T15:09:06;4;4;
60645;PMS5003;46462;32.608;-117.032;2024-02-28T15:11:37;5;5;
60645;PMS5003;46462;32.608;-117.032;2024-02-28T15:14:08;4;4;
60645;PMS5003;46462;32.608;-117.032;2024-02-28T15:16:38;7;5;
60645;PMS5003;46462;32.608;-117.032;2024-02-28T15:19:09;8;8;
60645;PMS5003;46462;32.608;-117.032;2024-02-28T15:21:40;8;7;
60645;PMS5003;46462;32.608;-117.032;2024-02-28T15:24:11;5;5;
60645;PMS5003;46462;32.608;-117.032;2024-02-28T15:26:41;8;8;
60645;PMS5003;46462;32.608;-117.032;2024-02-28T15:29:12;10;9;
60645;PMS5003;46462;32.608;-117.032;2024-02-28T15:31:43;7;7;
60645;PMS5003;46462;32.608;-117.032;2024-02-28T15:34:13;7;7;
60645;PMS5003;46462;32.608;-117.032;2024-02-28T15:36:44;7;7;
60645;PMS5003;46462;32.608;-117.032;2024-02-28T15:39:15;8;7;
60645;PMS5003;46462;32.608;-117.032;2024-02-28T15:41:46;6;6;
60645;PMS5003;46462;32.608;-117.032;2024-02-28T15:44:16;7;7;
60645;PMS5003;46462;32.608;-117.032;2024-02-28T15:46:47;6;6;
60645;PMS5003;46462;32.608;-117.032;2024-02-28T15:49:17;7;6;
60645;PMS5003;46462;32.608;-117.032;2024-02-28T15:51:49;5;5;
60645;PMS5003;46462;32.608;-117.032;2024-02-28T15:54:19;5;5;
60645;PMS5003;46462;32.608;-117.032;2024-02-28T15:56:50;7;7;
60645;PMS5003;46462;32.608;-117.032;2024-02-28T15:59:20;5;5;
60645;PMS5003;46462;32.608;-117.032;2024-02-28T16:01:51;8;7;
60645;PMS5003;46462;32.608;-117.032;2024-02-28T16:04:22;6;6;
60645;PMS5003;46462;32.608;-117.032;2024-02-28T16:06:53;5;5;
60645;PMS5003;46462;32.608;-117.032;2024-02-28T16:09:23;5;5;
60645;PMS5003;46462;32.608;-117.032;2024-02-28T16:11:54;6;6;
60645;PMS5003;46462;32.608;-117.032;2024-02-28T16:14:25;5;5;
60645;PMS5003;46462;32.608;-117.032;2024-02-28T16:16:55;6;5;
60645;PMS5003;46462;32.608;-117.032;2024-02-28T16:19:26;5;5;
60645;PMS5003;46462;32.608;-117.032;2024-02-28T16:21:57;5;5;
60645;PMS5003;46462;32.608;-117.032;2024-02-28T16:24:28;5;5;
60645;PMS5003;46462;32.608;-117.032;2024-02-28T16:26:58;6;6;
60645;PMS5003;46462;32.608;-117.032;2024-02-28T16:29:29;6;6;
60645;PMS5003;46462;32.608;-117.032;2024-02-28T16:32:00;5;5;
60645;PMS5003;46462;32.608;-117.032;2024-02-28T16:34:34;5;5;
60645;PMS5003;46462;32.608;-117.032;2024-02-28T16:37:02;4;4;